sensor_id;sensor_type;location;lat;lon;timestamp;pressure;altitude;pressure_sealevel;temperature;humidity
63582;BME280;49727;51.078;17.066;2022-07-10T00:13:09;100308.59;;;14.98;67.75
63582;BME280;49727;51.078;17.066;2022-07-10T00:28:10;100306.22;;;14.81;68.59
63582;BME280;49727;51.078;17.066;2022-07-10T00:43:11;100300.56;;;14.48;69.17
63582;BME280;49727;51.078;17.066;2022-07-10T00:58:12;100295.97;;;14.20;70.25
63582;BME280;49727;51.078;17.066;2022-07-10T01:13:13;100280.63;;;14.07;71.38
63582;BME280;49727;51.078;17.066;2022-07-10T01:28:14;100297.66;;;13.84;72.33
63582;BME280;49727;51.078;17.066;2022-07-10T01:43:14;100301.03;;;13.71;73.13
63582;BME280;49727;51.078;17.066;2022-07-10T01:58:15;100290.75;;;13.39;74.07
63582;BME280;49727;51.078;17.066;2022-07-10T02:13:15;100295.81;;;13.18;74.77
63582;BME280;49727;51.078;17.066;2022-07-10T02:28:17;100294.59;;;13.21;75.48
63582;BME280;49727;51.078;17.066;2022-07-10T02:43:18;100298.38;;;13.27;76.23
63582;BME280;49727;51.078;17.066;2022-07-10T02:58:18;100307.53;;;13.47;75.43
63582;BME280;49727;51.078;17.066;2022-07-10T03:13:19;100299.97;;;13.36;75.41
63582;BME280;49727;51.078;17.066;2022-07-10T03:28:20;100310.75;;;13.28;74.94
63582;BME280;49727;51.078;17.066;2022-07-10T03:43:20;100297.19;;;13.29;74.88
63582;BME280;49727;51.078;17.066;2022-07-10T03:58:21;100301.97;;;13.64;74.76
63582;BME280;49727;51.078;17.066;2022-07-10T04:13:21;100305.81;;;13.76;74.06
63582;BME280;49727;51.078;17.066;2022-07-10T04:28:21;100303.56;;;13.95;73.63
63582;BME280;49727;51.078;17.066;2022-07-10T04:43:22;100309.81;;;14.45;72.65
63582;BME280;49727;51.078;17.066;2022-07-10T04:58:22;100308.06;;;14.59;72.04
63582;BME280;49727;51.078;17.066;2022-07-10T05:13:22;100294.31;;;14.91;71.21
63582;BME280;49727;51.078;17.066;2022-07-10T05:28:23;100314.91;;;15.18;69.58
63582;BME280;49727;51.078;17.066;2022-07-10T05:43:23;100314.63;;;15.42;68.09
63582;BME280;49727;51.078;17.066;2022-07-10T05:58:24;100313.31;;;15.72;66.26
63582;BME280;49727;51.078;17.066;2022-07-10T06:13:24;100306.88;;;16.35;63.42
63582;BME280;49727;51.078;17.066;2022-07-10T06:28:24;100319.06;;;16.85;61.00
63582;BME280;49727;51.078;17.066;2022-07-10T06:43:25;100324.22;;;17.27;59.26
63582;BME280;49727;51.078;17.066;2022-07-10T06:58:25;100298.47;;;17.89;57.58
63582;BME280;49727;51.078;17.066;2022-07-10T07:13:25;100311.56;;;17.86;55.44
63582;BME280;49727;51.078;17.066;2022-07-10T07:28:26;100308.53;;;18.14;53.95
63582;BME280;49727;51.078;17.066;2022-07-10T07:43:26;100317.38;;;17.83;52.62
63582;BME280;49727;51.078;17.066;2022-07-10T07:58:26;100317.75;;;17.86;52.56
63582;BME280;49727;51.078;17.066;2022-07-10T08:13:27;100310.38;;;18.71;50.05
63582;BME280;49727;51.078;17.066;2022-07-10T08:28:28;100302.50;;;19.69;49.08
63582;BME280;49727;51.078;17.066;2022-07-10T08:43:28;100303.78;;;18.92;47.93
63582;BME280;49727;51.078;17.066;2022-07-10T08:58:30;100298.88;;;19.26;46.21
63582;BME280;49727;51.078;17.066;2022-07-10T09:13:48;100310.94;;;20.21;44.79
63582;BME280;49727;51.078;17.066;2022-07-10T09:29:04;100307.75;;;19.45;46.02
63582;BME280;49727;51.078;17.066;2022-07-10T09:44:06;100312.47;;;18.94;44.04
63582;BME280;49727;51.078;17.066;2022-07-10T09:59:13;100302.81;;;18.29;45.21
63582;BME280;49727;51.078;17.066;2022-07-10T10:14:15;100311.69;;;19.31;44.41
63582;BME280;49727;51.078;17.066;2022-07-10T10:29:19;100307.34;;;19.97;44.21
63582;BME280;49727;51.078;17.066;2022-07-10T10:44:19;100298.03;;;18.31;46.14
63582;BME280;49727;51.078;17.066;2022-07-10T11:14:48;100290.22;;;18.99;46.27
63582;BME280;49727;51.078;17.066;2022-07-10T11:29:56;100282.06;;;18.80;46.73
63582;BME280;49727;51.078;17.066;2022-07-10T11:44:57;100265.09;;;20.50;44.33
63582;BME280;49727;51.078;17.066;2022-07-10T11:59:57;100291.28;;;19.35;45.37
63582;BME280;49727;51.078;17.066;2022-07-10T12:14:58;100300.59;;;18.70;48.24
63582;BME280;49727;51.078;17.066;2022-07-10T12:30:01;100298.06;;;21.06;49.05
63582;BME280;49727;51.078;17.066;2022-07-10T12:45:12;100297.16;;;22.74;43.59
63582;BME280;49727;51.078;17.066;2022-07-10T13:15:26;100323.06;;;20.73;46.54
63582;BME280;49727;51.078;17.066;2022-07-10T13:30:26;100298.16;;;21.76;44.98
63582;BME280;49727;51.078;17.066;2022-07-10T13:45:27;100289.56;;;22.08;40.35
63582;BME280;49727;51.078;17.066;2022-07-10T14:00:32;100281.13;;;21.23;40.38
63582;BME280;49727;51.078;17.066;2022-07-10T14:15:32;100279.72;;;20.96;40.93
63582;BME280;49727;51.078;17.066;2022-07-10T14:30:33;100272.78;;;20.53;40.25
63582;BME280;49727;51.078;17.066;2022-07-10T14:45:33;100309.38;;;19.83;40.25
63582;BME280;49727;51.078;17.066;2022-07-10T15:00:34;100300.97;;;20.34;39.67
63582;BME280;49727;51.078;17.066;2022-07-10T15:15:34;100317.38;;;20.08;40.13
63582;BME280;49727;51.078;17.066;2022-07-10T15:30:35;100325.34;;;19.36;42.47
63582;BME280;49727;51.078;17.066;2022-07-10T15:45:36;100322.34;;;19.44;43.19
63582;BME280;49727;51.078;17.066;2022-07-10T16:00:36;100311.69;;;19.49;43.16
63582;BME280;49727;51.078;17.066;2022-07-10T16:15:37;100313.88;;;19.22;43.53
63582;BME280;49727;51.078;17.066;2022-07-10T16:30:38;100315.56;;;19.16;43.40
63582;BME280;49727;51.078;17.066;2022-07-10T16:45:39;100315.84;;;19.08;42.75
63582;BME280;49727;51.078;17.066;2022-07-10T17:00:40;100302.50;;;18.69;43.26
63582;BME280;49727;51.078;17.066;2022-07-10T17:15:40;100318.78;;;18.31;43.76
63582;BME280;49727;51.078;17.066;2022-07-10T17:30:41;100329.69;;;18.10;44.57
63582;BME280;49727;51.078;17.066;2022-07-10T17:45:41;100331.84;;;17.95;44.76
63582;BME280;49727;51.078;17.066;2022-07-10T18:00:41;100338.34;;;17.74;45.12
63582;BME280;49727;51.078;17.066;2022-07-10T18:15:42;100337.00;;;17.51;45.66
63582;BME280;49727;51.078;17.066;2022-07-10T18:30:42;100344.47;;;17.36;46.08
63582;BME280;49727;51.078;17.066;2022-07-10T18:45:44;100349.28;;;17.27;46.32
63582;BME280;49727;51.078;17.066;2022-07-10T19:00:45;100347.44;;;17.14;47.15
63582;BME280;49727;51.078;17.066;2022-07-10T19:15:45;100362.38;;;16.90;47.74
63582;BME280;49727;51.078;17.066;2022-07-10T19:30:46;100377.66;;;16.69;48.44
63582;BME280;49727;51.078;17.066;2022-07-10T19:45:46;100386.72;;;16.62;49.11
63582;BME280;49727;51.078;17.066;2022-07-10T20:00:47;100423.56;;;16.54;49.47
63582;BME280;49727;51.078;17.066;2022-07-10T20:15:47;100441.06;;;16.30;51.45
63582;BME280;49727;51.078;17.066;2022-07-10T20:30:48;100432.38;;;15.80;53.97
63582;BME280;49727;51.078;17.066;2022-07-10T20:45:48;100427.09;;;15.30;57.07
63582;BME280;49727;51.078;17.066;2022-07-10T21:00:48;100424.44;;;15.08;59.50
63582;BME280;49727;51.078;17.066;2022-07-10T21:15:49;100418.28;;;14.64;60.97
63582;BME280;49727;51.078;17.066;2022-07-10T21:30:49;100419.25;;;14.42;63.11
63582;BME280;49727;51.078;17.066;2022-07-10T21:45:49;100414.06;;;14.18;64.54
63582;BME280;49727;51.078;17.066;2022-07-10T22:00:50;100415.44;;;14.14;65.71
63582;BME280;49727;51.078;17.066;2022-07-10T22:15:50;100417.50;;;14.12;67.04
63582;BME280;49727;51.078;17.066;2022-07-10T22:30:50;100431.59;;;14.21;66.69
63582;BME280;49727;51.078;17.066;2022-07-10T22:46:10;100431.00;;;14.04;67.46
63582;BME280;49727;51.078;17.066;2022-07-10T23:01:10;100424.97;;;14.02;68.30
63582;BME280;49727;51.078;17.066;2022-07-10T23:16:12;100419.25;;;14.05;68.37
63582;BME280;49727;51.078;17.066;2022-07-10T23:31:12;100412.34;;;14.11;68.27
63582;BME280;49727;51.078;17.066;2022-07-10T23:46:13;100404.53;;;14.16;68.13
